Time;durP1;ratioP1;P1;durP2;ratioP2;P2;SDS_P1;SDS_P2;PMS_P1;PMS_P2;Temp;Humidity;BMP_temperature;BMP_pressure;BME280_temperature;BME280_humidity;BME280_pressure;Samples;Min_cycle;Max_cycle;Signal;HPM_P1;HPM_P2
2023/05/05 00:00:39;;;;;;;10.13;5.13;;;;;;;16.54;60.67;100569.91;4133895;28;20042;-62
2023/05/05 00:02:42;;;;;;;14.02;5.22;;;;;;;16.54;60.34;100564.66;4128368;28;20050;-61
2023/05/05 00:04:46;;;;;;;11.60;5.43;;;;;;;16.53;60.47;100568.19;4130941;28;20408;-61
2023/05/05 00:06:48;;;;;;;12.05;5.50;;;;;;;16.49;59.78;100566.47;4131006;28;20042;-62
2023/05/05 00:08:53;;;;;;;9.27;5.03;;;;;;;16.46;59.63;100566.50;4130865;28;20054;-62
2023/05/05 00:10:56;;;;;;;6.85;3.75;;;;;;;16.41;59.45;100563.88;4130984;28;20500;-62
2023/05/05 00:12:59;;;;;;;10.73;5.00;;;;;;;16.44;58.69;100563.00;4130680;28;20496;-62
2023/05/05 00:15:02;;;;;;;7.43;4.13;;;;;;;16.45;58.81;100570.84;4130870;28;20062;-61
2023/05/05 00:17:05;;;;;;;7.47;4.18;;;;;;;16.43;58.66;100567.38;4130844;28;20046;-62
2023/05/05 00:19:08;;;;;;;7.03;3.90;;;;;;;16.44;58.70;100563.88;4112516;28;20043;-61
2023/05/05 00:21:10;;;;;;;7.72;4.28;;;;;;;16.46;58.38;100566.50;4117638;28;20093;-62
2023/05/05 00:23:14;;;;;;;11.57;5.25;;;;;;;16.49;58.60;100561.22;4130588;28;20419;-61
2023/05/05 00:25:18;;;;;;;7.20;3.83;;;;;;;16.54;58.29;100564.66;4113697;28;20043;-61
2023/05/05 00:27:21;;;;;;;8.98;4.53;;;;;;;16.54;58.32;100564.66;4131285;28;20463;-61
2023/05/05 00:29:24;;;;;;;10.55;5.35;;;;;;;16.52;58.37;100561.19;4113603;28;20043;-61
2023/05/05 00:31:27;;;;;;;6.22;3.58;;;;;;;16.52;58.17;100569.06;4113273;28;20133;-61
2023/05/05 00:33:30;;;;;;;10.75;4.35;;;;;;;16.49;57.94;100562.09;4113353;28;20142;-62
2023/05/05 00:35:33;;;;;;;10.65;4.38;;;;;;;16.49;57.99;100562.09;4121327;28;20054;-61
2023/05/05 00:37:36;;;;;;;7.70;3.85;;;;;;;16.50;58.09;100562.94;4139746;28;20408;-61
2023/05/05 00:39:39;;;;;;;5.20;3.65;;;;;;;16.49;58.51;100558.59;4116155;28;20043;-61
2023/05/05 00:41:43;;;;;;;7.18;4.40;;;;;;;16.49;59.10;100553.34;4116125;28;20046;-61
2023/05/05 00:43:46;;;;;;;8.30;4.32;;;;;;;16.49;59.19;100553.34;4100068;29;20063;-62
2023/05/05 00:45:56;;;;;;;6.78;4.57;;;;;;;16.49;59.78;100555.97;4099816;28;20054;-61
2023/05/05 00:48:01;;;;;;;7.68;4.45;;;;;;;16.47;59.60;100560.34;4124169;28;20163;-62
2023/05/05 00:50:04;;;;;;;6.78;4.40;;;;;;;16.47;59.01;100553.38;4116214;28;20122;-61
2023/05/05 00:52:08;;;;;;;7.72;4.22;;;;;;;16.45;58.74;100534.13;4110973;28;20062;-62
2023/05/05 00:54:11;;;;;;;11.35;5.10;;;;;;;16.43;57.65;100540.25;4139823;28;20034;-61
2023/05/05 00:56:15;;;;;;;6.22;3.67;;;;;;;16.39;57.27;100535.03;4106454;28;20081;-63
2023/05/05 00:58:20;;;;;;;6.65;3.60;;;;;;;16.34;57.28;100544.72;4123225;28;20129;-62
2023/05/05 01:00:23;;;;;;;6.85;4.05;;;;;;;16.31;57.31;100543.84;4124895;28;20039;-61
2023/05/05 01:02:26;;;;;;;6.20;4.00;;;;;;;16.39;57.43;100532.41;4119497;28;20854;-62
2023/05/05 01:04:29;;;;;;;6.47;3.83;;;;;;;16.31;57.33;100531.63;4123131;28;20042;-62
2023/05/05 01:06:46;;;;;;;5.43;3.88;;;;;;;16.31;57.24;100536.88;4119719;28;20513;-61
2023/05/05 01:09:03;;;;;;;7.43;4.22;;;;;;;16.27;57.18;100535.16;4131355;28;20050;-62
2023/05/05 01:11:14;;;;;;;6.35;3.65;;;;;;;16.24;57.44;100535.19;4111273;28;20038;-62
2023/05/05 01:13:30;;;;;;;5.68;3.90;;;;;;;16.25;57.57;100542.16;4112431;28;20110;-62
2023/05/05 01:15:36;;;;;;;7.28;4.22;;;;;;;16.25;57.71;100536.91;4099707;29;20130;-61
2023/05/05 01:17:43;;;;;;;6.90;3.83;;;;;;;16.26;57.92;100533.41;4116968;28;20687;-61
2023/05/05 01:20:09;;;;;;;10.40;4.40;;;;;;;16.26;57.64;100541.28;4083659;29;20044;-61
2023/05/05 01:22:15;;;;;;;;;;;;;;;16.09;58.37;100533.56;4113554;28;20062;-62
2023/05/05 01:24:38;;;;;;;;;;;;;;;15.99;58.66;100537.97;4134755;28;20384;-62
2023/05/05 01:26:55;;;;;;;5.65;4.28;;;;;;;16.08;58.52;100538.78;4131846;28;20268;-61
2023/05/05 01:29:27;;;;;;;10.20;4.15;;;;;;;16.15;57.49;100535.22;4136996;28;20042;-62
2023/05/05 01:31:52;;;;;;;6.82;4.07;;;;;;;16.18;57.17;100537.88;4138002;28;20057;-62
2023/05/05 01:34:00;;;;;;;5.65;3.97;;;;;;;16.16;57.22;100532.59;4101062;28;20051;-62
2023/05/05 01:36:07;;;;;;;11.25;4.65;;;;;;;16.13;57.39;100545.75;4104619;28;20121;-62
2023/05/05 01:38:15;;;;;;;6.90;4.85;;;;;;;16.15;58.02;100545.72;4122146;28;20034;-62
2023/05/05 01:40:22;;;;;;;5.80;3.70;;;;;;;16.13;57.49;100553.59;4121115;28;20042;-61
2023/05/05 01:42:26;;;;;;;8.55;4.53;;;;;;;16.14;57.72;100551.88;4114974;28;20043;-61
2023/05/05 01:44:32;;;;;;;5.47;4.03;;;;;;;16.13;57.68;100558.00;4136300;28;20103;-61
2023/05/05 01:46:36;;;;;;;6.25;4.63;;;;;;;16.14;57.71;100557.13;4115031;28;20058;-61
2023/05/05 01:48:42;;;;;;;9.02;5.20;;;;;;;16.13;57.45;100550.13;4139780;28;20049;-61
2023/05/05 01:50:47;;;;;;;5.57;3.97;;;;;;;16.08;57.46;100551.91;4128915;28;20492;-61
2023/05/05 01:52:51;;;;;;;7.65;4.55;;;;;;;16.06;57.54;100544.03;4132605;28;20042;-62
2023/05/05 01:54:57;;;;;;;7.65;4.78;;;;;;;16.02;57.93;100550.22;4110996;28;20477;-62
2023/05/05 01:57:03;;;;;;;8.70;4.38;;;;;;;16.01;57.44;100558.94;4122270;28;20523;-61
2023/05/05 01:59:07;;;;;;;7.07;4.50;;;;;;;16.01;57.53;100561.56;4116587;28;20125;-61
2023/05/05 02:01:12;;;;;;;6.20;4.43;;;;;;;15.98;58.10;100565.06;4114083;28;20053;-61
2023/05/05 02:03:16;;;;;;;6.13;4.50;;;;;;;15.97;57.49;100563.31;4110960;28;20074;-62
2023/05/05 02:05:23;;;;;;;9.43;4.18;;;;;;;15.94;57.87;100578.22;4112521;28;20054;-62
2023/05/05 02:07:27;;;;;;;6.40;4.20;;;;;;;15.91;58.00;100579.09;4132700;28;20492;-61
2023/05/05 02:09:32;;;;;;;8.68;4.53;;;;;;;15.86;57.98;100576.50;4104483;28;20105;-62
2023/05/05 02:11:35;;;;;;;12.35;5.18;;;;;;;15.83;57.97;100567.81;4121963;28;20098;-62
2023/05/05 02:13:41;;;;;;;8.00;5.07;;;;;;;15.78;58.85;100575.69;4133333;28;20132;-62
2023/05/05 02:15:51;;;;;;;7.97;4.82;;;;;;;15.76;58.85;100568.69;4109065;28;20035;-62
2023/05/05 02:17:55;;;;;;;8.82;5.18;;;;;;;15.71;59.32;100577.44;4096729;28;20093;-62
2023/05/05 02:19:59;;;;;;;8.10;4.60;;;;;;;15.71;59.68;100577.44;4113356;28;20043;-61
2023/05/05 02:22:03;;;;;;;;;;;;;;;15.61;59.50;100583.59;4114004;28;20089;-62
2023/05/05 02:24:07;;;;;;;7.00;5.03;;;;;;;15.64;59.83;100580.09;4119029;28;19922;-61
2023/05/05 02:26:14;;;;;;;5.68;4.60;;;;;;;15.63;59.77;100578.34;4122646;28;20039;-62
2023/05/05 02:28:22;;;;;;;10.07;5.20;;;;;;;15.63;59.85;100573.97;4110815;28;20477;-61
2023/05/05 02:30:32;;;;;;;7.40;4.68;;;;;;;15.60;59.90;100568.75;4129337;28;20042;-62
2023/05/05 02:32:39;;;;;;;6.40;4.55;;;;;;;15.59;59.66;100571.38;4112573;28;20039;-62
2023/05/05 02:34:47;;;;;;;5.78;4.88;;;;;;;15.54;60.31;100581.88;4107178;28;20035;-62
2023/05/05 02:36:53;;;;;;;6.32;4.55;;;;;;;15.52;59.60;100578.38;4114315;28;20101;-61
2023/05/05 02:39:05;;;;;;;6.28;4.68;;;;;;;15.53;59.94;100578.38;4118754;28;20044;-61
2023/05/05 02:41:16;;;;;;;7.43;5.38;;;;;;;15.51;60.18;100587.16;4117735;28;20042;-61
2023/05/05 02:43:22;;;;;;;8.02;4.88;;;;;;;15.47;60.22;100588.03;4114518;28;20118;-61
2023/05/05 02:45:28;;;;;;;7.38;5.60;;;;;;;15.43;60.20;100586.28;4114357;28;20143;-61
2023/05/05 02:47:35;;;;;;;7.63;5.28;;;;;;;15.41;60.00;100588.06;4128714;28;20481;-61
2023/05/05 02:49:38;;;;;;;5.80;4.43;;;;;;;15.39;59.59;100590.69;4145597;28;20045;-61
2023/05/05 02:51:41;;;;;;;9.70;5.00;;;;;;;15.40;60.62;100587.16;4119988;28;20484;-62
2023/05/05 02:53:53;;;;;;;8.55;4.82;;;;;;;15.39;60.55;100593.31;4132366;28;20042;-61
2023/05/05 02:56:06;;;;;;;9.45;5.80;;;;;;;15.36;60.79;100588.06;4118164;28;20065;-62
2023/05/05 02:58:21;;;;;;;8.52;5.57;;;;;;;15.31;60.56;100603.78;4135820;28;20030;-62
2023/05/05 03:00:34;;;;;;;8.38;5.13;;;;;;;15.25;60.73;100601.19;4127243;28;20094;-61
2023/05/05 03:02:44;;;;;;;10.15;5.50;;;;;;;15.24;60.88;100591.59;4113298;28;20039;-61
2023/05/05 03:04:55;;;;;;;9.63;5.93;;;;;;;15.24;61.41;100598.59;4122104;28;20034;-62
2023/05/05 03:07:07;;;;;;;6.28;4.80;;;;;;;15.24;60.95;100585.50;4102764;28;20604;-62
2023/05/05 03:09:14;;;;;;;7.72;4.85;;;;;;;15.24;60.66;100588.97;4121063;28;20034;-62
2023/05/05 03:11:27;;;;;;;7.13;5.00;;;;;;;15.23;60.52;100588.97;4111517;28;20042;-62
2023/05/05 03:13:34;;;;;;;8.35;5.90;;;;;;;15.14;60.75;100589.88;4120947;28;20046;-62
2023/05/05 03:15:49;;;;;;;9.13;6.20;;;;;;;15.10;60.67;100582.88;4122084;28;20034;-62
2023/05/05 03:17:56;;;;;;;8.15;5.88;;;;;;;15.06;60.92;100591.66;4122467;28;20066;-62
2023/05/05 03:19:59;;;;;;;10.27;6.05;;;;;;;15.06;61.45;100589.91;4133592;28;20500;-62
2023/05/05 03:22:09;;;;;;;9.18;6.07;;;;;;;15.09;61.12;100591.66;4112546;28;20054;-62
2023/05/05 03:24:18;;;;;;;8.80;6.45;;;;;;;15.06;61.97;100591.66;4118025;28;20097;-62
2023/05/05 03:26:38;;;;;;;9.40;6.13;;;;;;;15.01;61.56;100589.06;4121271;28;20468;-62
2023/05/05 03:28:41;;;;;;;10.45;7.03;;;;;;;15.00;61.75;100588.16;4140282;28;20459;-62
2023/05/05 03:30:51;;;;;;;8.20;5.93;;;;;;;14.97;61.01;100582.94;4109273;28;20082;-62
2023/05/05 03:32:54;;;;;;;9.63;7.43;;;;;;;14.95;61.85;100594.28;4119450;28;20489;-62
2023/05/05 03:34:57;;;;;;;12.25;6.10;;;;;;;14.92;61.30;100589.03;4120058;28;20460;-62
2023/05/05 03:37:05;;;;;;;10.27;7.00;;;;;;;14.95;61.54;100595.16;4121575;28;20104;-62
2023/05/05 03:39:09;;;;;;;8.27;6.68;;;;;;;15.01;61.16;100600.38;4115847;28;20040;-62
2023/05/05 03:41:12;;;;;;;10.90;6.53;;;;;;;14.98;60.95;100605.63;4114656;28;20041;-61
2023/05/05 03:43:18;;;;;;;9.40;6.20;;;;;;;14.97;60.72;100609.13;4111382;28;20586;-61
2023/05/05 03:45:21;;;;;;;8.60;6.55;;;;;;;14.99;61.15;100615.19;4112193;28;20137;-62
2023/05/05 03:47:24;;;;;;;8.57;6.30;;;;;;;15.01;61.56;100615.22;4134976;28;20528;-62
2023/05/05 03:49:28;;;;;;;7.60;6.50;;;;;;;15.01;61.81;100618.72;4120481;28;20050;-62
2023/05/05 03:51:32;;;;;;;9.82;6.25;;;;;;;15.03;61.93;100617.84;4116404;28;20456;-62
2023/05/05 03:53:35;;;;;;;8.77;5.85;;;;;;;15.00;61.84;100619.56;4091337;28;20054;-62
2023/05/05 03:55:41;;;;;;;8.35;6.05;;;;;;;14.93;62.61;100617.84;4109778;28;20450;-62
2023/05/05 03:57:44;;;;;;;9.98;6.20;;;;;;;14.99;62.36;100614.34;4110759;28;20039;-62
2023/05/05 03:59:48;;;;;;;9.05;6.07;;;;;;;14.97;62.83;100603.88;4109718;28;20046;-62
2023/05/05 04:01:51;;;;;;;9.68;6.70;;;;;;;14.93;63.02;100603.88;4108333;28;20126;-62
2023/05/05 04:03:55;;;;;;;8.05;6.15;;;;;;;14.92;62.38;100604.75;4132891;28;20487;-62
2023/05/05 04:05:58;;;;;;;9.90;6.40;;;;;;;14.91;62.64;100606.50;4121319;28;20096;-62
2023/05/05 04:08:02;;;;;;;10.50;6.63;;;;;;;14.92;63.13;100607.38;4122230;28;20038;-62
2023/05/05 04:10:06;;;;;;;7.97;6.30;;;;;;;14.91;62.69;100611.75;4102412;28;20072;-62
2023/05/05 04:12:09;;;;;;;8.05;6.47;;;;;;;14.87;63.35;100604.75;4131433;28;20547;-62
2023/05/05 04:14:12;;;;;;;9.52;6.97;;;;;;;14.83;63.74;100610.88;4119704;28;20066;-62
2023/05/05 04:16:17;;;;;;;10.70;6.57;;;;;;;14.81;63.26;100610.00;4129516;28;20464;-62
2023/05/05 04:18:20;;;;;;;10.05;7.28;;;;;;;14.80;63.61;100610.88;4116014;28;20133;-62
2023/05/05 04:20:23;;;;;;;11.32;7.05;;;;;;;14.81;63.12;100615.25;4115111;28;20042;-62
2023/05/05 04:22:25;;;;;;;9.20;6.60;;;;;;;14.79;64.02;100630.97;4137705;28;20073;-62
2023/05/05 04:24:28;;;;;;;9.13;7.07;;;;;;;14.79;63.96;100630.06;4121490;28;20039;-62
2023/05/05 04:26:31;;;;;;;10.02;6.70;;;;;;;14.78;63.23;100633.56;4132354;28;20472;-62
2023/05/05 04:28:34;;;;;;;11.70;6.80;;;;;;;14.82;63.86;100640.53;4116246;28;20150;-62
2023/05/05 04:30:37;;;;;;;9.18;7.32;;;;;;;14.86;63.89;100634.41;4108376;28;20203;-62
2023/05/05 04:32:41;;;;;;;8.65;6.57;;;;;;;14.88;63.69;100635.31;4115488;28;20038;-62
2023/05/05 04:34:45;;;;;;;8.82;6.45;;;;;;;14.82;63.29;100633.56;4117311;28;20702;-62
2023/05/05 04:36:48;;;;;;;10.02;6.70;;;;;;;14.83;63.72;100634.44;4100799;28;20062;-62
2023/05/05 04:38:51;;;;;;;9.93;6.65;;;;;;;14.84;63.85;100634.41;4132457;28;20042;-62
2023/05/05 04:40:54;;;;;;;10.35;6.80;;;;;;;14.86;63.58;100631.81;4116375;28;20042;-62
2023/05/05 04:42:57;;;;;;;10.60;7.28;;;;;;;14.86;63.57;100641.41;4122501;28;20043;-62
2023/05/05 04:45:00;;;;;;;13.73;7.05;;;;;;;14.86;64.00;100641.41;4135881;28;20527;-62
2023/05/05 04:47:04;;;;;;;8.90;6.30;;;;;;;14.85;64.47;100635.31;4143777;28;20061;-62
2023/05/05 04:49:08;;;;;;;8.30;5.88;;;;;;;14.89;64.38;100637.03;4118940;28;20129;-62
2023/05/05 04:51:11;;;;;;;8.10;6.38;;;;;;;14.92;64.91;100644.03;4091021;28;20049;-62
2023/05/05 04:53:15;;;;;;;9.27;6.60;;;;;;;14.96;64.85;100640.53;4114863;28;20042;-62
2023/05/05 04:55:19;;;;;;;8.95;6.78;;;;;;;14.99;63.58;100648.38;4114248;28;20070;-62
2023/05/05 04:57:21;;;;;;;9.10;6.05;;;;;;;15.05;64.23;100645.75;4110566;28;20078;-62
2023/05/05 04:59:24;;;;;;;12.18;8.23;;;;;;;15.15;63.87;100657.09;4116135;28;20522;-62
2023/05/05 05:01:27;;;;;;;10.98;6.93;;;;;;;15.22;64.39;100650.97;4121093;28;20038;-62
2023/05/05 05:03:30;;;;;;;11.30;7.22;;;;;;;15.26;63.09;100647.47;4122296;28;20041;-62
2023/05/05 05:05:35;;;;;;;10.50;7.50;;;;;;;15.28;63.27;100666.66;4094405;28;20433;-62
2023/05/05 05:07:38;;;;;;;11.68;8.02;;;;;;;15.39;63.24;100664.03;4113607;28;20055;-62
2023/05/05 05:09:41;;;;;;;9.48;7.75;;;;;;;15.40;63.27;100659.66;4113075;28;20129;-62
2023/05/05 05:11:43;;;;;;;9.88;7.32;;;;;;;15.47;62.64;100658.78;4109402;28;20043;-62
2023/05/05 05:13:46;;;;;;;11.07;8.05;;;;;;;15.57;63.21;100662.25;4113111;28;20579;-62
2023/05/05 05:15:49;;;;;;;9.57;7.65;;;;;;;15.53;63.06;100651.75;4126645;28;20089;-62
2023/05/05 05:17:53;;;;;;;8.68;6.95;;;;;;;15.53;64.19;100661.38;4140277;22;20038;-63
2023/05/05 05:19:58;;;;;;;8.85;6.25;;;;;;;15.48;64.49;100653.53;4170441;28;20071;-63
2023/05/05 05:22:02;;;;;;;;;;;;;;;15.35;65.00;100660.53;4141525;28;20041;-63
2023/05/05 05:24:07;;;;;;;12.98;8.10;;;;;;;15.40;65.49;100654.41;4138026;28;19980;-63
2023/05/05 05:26:10;;;;;;;11.38;7.25;;;;;;;15.48;65.52;100661.38;4140086;28;20061;-63
2023/05/05 05:28:13;;;;;;;8.55;6.65;;;;;;;15.57;64.89;100659.63;4145222;28;20121;-63
2023/05/05 05:30:23;;;;;;;9.23;6.47;;;;;;;15.64;64.22;100659.59;4142720;28;20440;-62
2023/05/05 05:32:27;;;;;;;9.20;6.82;;;;;;;15.65;65.00;100663.97;4130430;28;20042;-63
2023/05/05 05:34:30;;;;;;;11.48;6.28;;;;;;;15.69;64.96;100663.06;4145989;28;20097;-63
2023/05/05 05:36:33;;;;;;;8.55;7.25;;;;;;;15.73;64.91;100663.06;4128378;28;20086;-63
2023/05/05 05:38:37;;;;;;;10.68;6.50;;;;;;;15.77;65.12;100670.91;4144621;28;20418;-63
2023/05/05 05:40:40;;;;;;;10.05;6.45;;;;;;;15.77;65.16;100670.03;4140512;28;20546;-63
2023/05/05 05:42:44;;;;;;;9.55;6.60;;;;;;;15.79;65.20;100666.56;4135788;28;20740;-63
2023/05/05 05:44:46;;;;;;;9.45;6.50;;;;;;;15.82;65.67;100669.16;4123314;28;20050;-63
2023/05/05 05:46:49;;;;;;;8.70;5.93;;;;;;;15.84;65.73;100677.00;4115148;28;20586;-64
2023/05/05 05:48:52;;;;;;;8.90;6.45;;;;;;;15.88;65.43;100673.50;4124168;28;20089;-63
2023/05/05 05:50:55;;;;;;;10.23;7.70;;;;;;;15.95;64.58;100677.00;4123226;28;20047;-63
2023/05/05 05:52:59;;;;;;;11.70;7.35;;;;;;;16.05;64.00;100669.06;4126716;28;20042;-63
2023/05/05 05:55:05;;;;;;;9.50;6.85;;;;;;;16.12;64.02;100677.78;4147415;28;20447;-63
2023/05/05 05:57:09;;;;;;;7.32;6.28;;;;;;;16.11;64.48;100680.41;4115027;28;20077;-63
2023/05/05 05:59:12;;;;;;;11.20;6.88;;;;;;;16.15;64.25;100684.75;4130035;28;20096;-63
2023/05/05 06:01:16;;;;;;;8.55;6.05;;;;;;;16.14;64.70;100688.25;4123176;28;20038;-63
2023/05/05 06:03:19;;;;;;;13.45;6.93;;;;;;;16.18;64.96;100692.63;4130667;28;20121;-63
2023/05/05 06:05:22;;;;;;;9.68;7.10;;;;;;;16.26;64.92;100701.28;4130124;28;20042;-63
2023/05/05 06:07:26;;;;;;;7.35;5.75;;;;;;;16.26;64.96;100701.28;4134925;28;20458;-63
2023/05/05 06:09:29;;;;;;;10.52;6.90;;;;;;;16.31;64.72;100698.66;4116092;28;20129;-63
2023/05/05 06:11:33;;;;;;;8.23;6.68;;;;;;;16.33;64.67;100696.91;4114512;28;20504;-63
2023/05/05 06:13:36;;;;;;;;;;;;;;;16.30;64.73;100697.78;4139296;28;20041;-63
2023/05/05 06:15:41;;;;;;;9.70;6.88;;;;;;;16.42;64.16;100695.97;4131101;28;19980;-63
2023/05/05 06:17:44;;;;;;;9.90;6.68;;;;;;;16.47;64.34;100691.56;4130380;28;20042;-63
2023/05/05 06:19:47;;;;;;;8.15;6.00;;;;;;;16.57;64.42;100690.59;4147715;28;20440;-63
2023/05/05 06:21:50;;;;;;;8.52;5.78;;;;;;;16.62;64.50;100698.44;4131021;28;20058;-63
2023/05/05 06:23:53;;;;;;;11.20;7.50;;;;;;;16.66;64.66;100706.31;4155151;28;20060;-63
2023/05/05 06:25:56;;;;;;;9.75;6.10;;;;;;;16.71;64.85;100704.50;4124723;28;20049;-63
2023/05/05 06:28:00;;;;;;;9.55;6.13;;;;;;;16.77;64.57;100700.13;4148466;28;20057;-63
2023/05/05 06:30:05;;;;;;;10.32;7.20;;;;;;;16.86;63.95;100703.53;4147032;28;20521;-63
2023/05/05 06:32:08;;;;;;;11.65;6.68;;;;;;;16.88;64.23;100701.81;4141044;28;20515;-63
2023/05/05 06:34:11;;;;;;;10.75;6.32;;;;;;;16.93;64.41;100704.38;4123860;28;20054;-63
2023/05/05 06:36:14;;;;;;;8.77;6.40;;;;;;;16.97;63.87;100705.22;4134855;28;20080;-63
2023/05/05 06:38:17;;;;;;;9.80;6.93;;;;;;;16.93;63.74;100702.63;4143977;28;20041;-63
2023/05/05 06:40:19;;;;;;;12.65;7.18;;;;;;;16.96;63.73;100707.00;4125788;28;20083;-63
2023/05/05 06:42:22;;;;;;;9.13;6.22;;;;;;;16.97;63.89;100703.50;4128801;28;20496;-63
2023/05/05 06:44:29;;;;;;;7.68;5.78;;;;;;;16.98;64.43;100705.25;4128670;28;20085;-63
2023/05/05 06:46:33;;;;;;;7.35;5.95;;;;;;;17.02;63.87;100704.31;4122649;28;20046;-63
2023/05/05 06:48:35;;;;;;;8.80;6.15;;;;;;;17.09;63.70;100713.00;4140553;28;20483;-63
2023/05/05 06:50:38;;;;;;;9.25;7.20;;;;;;;17.00;63.54;100706.09;4146628;28;20042;-63
2023/05/05 06:52:41;;;;;;;10.27;6.80;;;;;;;17.04;63.55;100707.81;4146803;28;20042;-63
2023/05/05 06:54:44;;;;;;;9.93;6.15;;;;;;;17.15;63.48;100706.84;4139015;28;20088;-63
2023/05/05 06:56:47;;;;;;;10.70;7.35;;;;;;;17.11;64.10;100713.84;4142295;28;20390;-63
2023/05/05 06:58:50;;;;;;;8.65;6.55;;;;;;;17.22;63.57;100713.78;4133767;28;20125;-63
2023/05/05 07:00:54;;;;;;;10.18;6.88;;;;;;;17.37;63.27;100710.13;4135934;28;20042;-63
2023/05/05 07:02:57;;;;;;;11.93;7.55;;;;;;;17.47;63.21;100708.28;4132809;28;20046;-63
2023/05/05 07:05:00;;;;;;;12.77;7.53;;;;;;;17.53;62.97;100706.44;4121535;28;20030;-63
2023/05/05 07:07:06;;;;;;;18.23;5.95;;;;;;;17.54;62.67;100702.94;4136105;28;20072;-63
2023/05/05 07:09:09;;;;;;;8.77;6.53;;;;;;;17.61;63.39;100702.00;4142711;28;20455;-64
2023/05/05 07:11:12;;;;;;;8.63;6.75;;;;;;;17.64;63.53;100708.97;4136143;28;20089;-63
2023/05/05 07:13:16;;;;;;;15.38;7.22;;;;;;;17.74;62.95;100710.63;4146557;28;20084;-63
2023/05/05 07:15:19;;;;;;;11.88;7.55;;;;;;;17.79;62.78;100700.91;4126437;28;20077;-63
2023/05/05 07:17:32;;;;;;;11.00;7.25;;;;;;;17.93;63.33;100708.69;4122844;28;20046;-63
2023/05/05 07:19:35;;;;;;;11.80;5.35;;;;;;;17.92;62.84;100711.31;4129453;28;20045;-63
2023/05/05 07:21:38;;;;;;;8.95;5.22;;;;;;;18.00;63.45;100711.22;4145532;28;20496;-63
2023/05/05 07:23:41;;;;;;;9.65;6.03;;;;;;;18.08;63.32;100717.28;4138974;28;20046;-63
2023/05/05 07:25:44;;;;;;;8.43;5.38;;;;;;;18.20;62.95;100721.50;4147614;28;20042;-63
2023/05/05 07:27:47;;;;;;;7.47;5.47;;;;;;;18.26;62.67;100719.63;4148253;28;20124;-63
2023/05/05 07:29:50;;;;;;;9.52;5.80;;;;;;;18.32;62.19;100721.31;4144531;28;20547;-62
2023/05/05 07:31:52;;;;;;;6.32;4.63;;;;;;;18.45;62.12;100716.75;4150483;28;20045;-63
2023/05/05 07:33:57;;;;;;;7.38;4.72;;;;;;;18.58;62.09;100720.09;4144574;28;20065;-63
2023/05/05 07:36:00;;;;;;;9.52;5.45;;;;;;;18.71;61.46;100716.38;4125053;28;20049;-62
2023/05/05 07:38:02;;;;;;;11.68;5.32;;;;;;;18.78;61.79;100709.25;4144726;28;20038;-63
2023/05/05 07:40:07;;;;;;;7.30;5.20;;;;;;;18.90;62.19;100710.84;4141095;28;20491;-62
2023/05/05 07:42:10;;;;;;;;;;;;;;;18.93;61.44;100708.19;4142093;28;20416;-64
2023/05/05 07:44:12;;;;;;;9.77;5.10;;;;;;;18.89;61.83;100719.66;4141753;28;19925;-63
2023/05/05 07:46:15;;;;;;;8.55;5.40;;;;;;;18.90;62.44;100718.75;4141233;28;20047;-63
2023/05/05 07:48:18;;;;;;;9.70;5.43;;;;;;;18.91;61.42;100723.13;4144465;28;20042;-63
2023/05/05 07:50:23;;;;;;;7.13;4.57;;;;;;;18.89;61.42;100709.97;4149398;28;20096;-63
2023/05/05 07:52:26;;;;;;;7.30;4.00;;;;;;;18.83;62.01;100713.53;4144565;28;20042;-63
2023/05/05 07:54:49;;;;;;;7.65;5.32;;;;;;;18.91;60.97;100713.47;4136341;28;20041;-63
2023/05/05 07:56:52;;;;;;;7.97;4.97;;;;;;;18.80;61.68;100724.13;4146006;28;20061;-64
2023/05/05 07:58:55;;;;;;;7.32;4.40;;;;;;;18.76;62.07;100711.03;4130582;28;20044;-63
2023/05/05 08:00:59;;;;;;;7.95;4.55;;;;;;;18.80;62.05;100712.72;4149345;28;20061;-63
2023/05/05 08:03:02;;;;;;;6.55;4.88;;;;;;;18.83;61.89;100720.59;4110487;28;20058;-63
2023/05/05 08:05:06;;;;;;;7.10;4.63;;;;;;;18.80;61.91;100710.94;4144940;28;20404;-63
2023/05/05 08:07:11;;;;;;;12.38;5.65;;;;;;;18.83;61.69;100710.03;4136831;28;20049;-63
2023/05/05 08:09:14;;;;;;;7.05;4.75;;;;;;;18.86;61.88;100709.13;4137020;28;20040;-63
2023/05/05 08:11:17;;;;;;;6.93;4.50;;;;;;;18.86;62.41;100701.22;4147631;28;20034;-63
2023/05/05 08:13:20;;;;;;;7.75;3.97;;;;;;;18.86;61.77;100704.75;4144715;28;20049;-63
2023/05/05 08:15:23;;;;;;;7.50;4.65;;;;;;;18.93;62.03;100706.41;4140964;28;20034;-63
2023/05/05 08:17:25;;;;;;;6.43;3.90;;;;;;;19.05;61.29;100704.47;4144059;28;20041;-64
2023/05/05 08:19:28;;;;;;;10.82;3.85;;;;;;;18.99;61.80;100705.44;4144052;28;20046;-63
2023/05/05 08:21:32;;;;;;;8.18;3.58;;;;;;;19.08;61.39;100697.34;4134727;28;20050;-63
2023/05/05 08:23:37;;;;;;;7.82;4.05;;;;;;;19.19;61.29;100697.19;4140413;28;20381;-63
2023/05/05 08:25:40;;;;;;;7.03;3.80;;;;;;;19.32;61.00;100695.22;4145782;28;20036;-63
2023/05/05 08:27:44;;;;;;;5.22;3.17;;;;;;;19.43;60.41;100693.22;4137400;28;20073;-63
2023/05/05 08:29:47;;;;;;;4.85;3.00;;;;;;;19.70;60.21;100696.25;4141340;28;20504;-63
2023/05/05 08:31:50;;;;;;;3.80;2.60;;;;;;;19.96;59.78;100687.84;4144083;28;20045;-63
2023/05/05 08:33:54;;;;;;;6.82;2.80;;;;;;;20.20;59.34;100696.13;4137168;28;20042;-63
2023/05/05 08:35:58;;;;;;;4.18;2.75;;;;;;;20.41;58.35;100692.13;4140539;28;20096;-63
2023/05/05 08:38:01;;;;;;;6.07;3.50;;;;;;;20.52;58.14;100690.09;4139367;28;21518;-64
2023/05/05 08:40:07;;;;;;;5.60;2.83;;;;;;;20.61;57.44;100688.16;4119086;28;20472;-63
2023/05/05 08:42:10;;;;;;;5.03;2.55;;;;;;;20.69;56.97;100686.22;4138938;28;20069;-63
2023/05/05 08:44:14;;;;;;;3.60;2.65;;;;;;;20.87;56.92;100685.78;4138169;28;20455;-63
2023/05/05 08:46:17;;;;;;;7.45;2.75;;;;;;;20.97;55.54;100678.50;4139839;28;20056;-63
2023/05/05 08:48:23;;;;;;;3.72;2.55;;;;;;;21.02;55.43;100683.66;4128085;28;20038;-63
2023/05/05 08:50:28;;;;;;;3.72;2.72;;;;;;;21.15;55.10;100679.78;4150876;28;20112;-63
2023/05/05 08:52:38;;;;;;;5.75;2.30;;;;;;;21.28;54.44;100681.19;4148034;28;20037;-63
2023/05/05 08:54:50;;;;;;;6.28;2.63;;;;;;;21.43;54.69;100684.31;4140159;28;20038;-63
2023/05/05 08:56:58;;;;;;;6.45;2.78;;;;;;;21.61;54.56;100683.88;4145371;28;20048;-63
2023/05/05 08:59:02;;;;;;;5.90;3.00;;;;;;;21.81;53.88;100685.06;4143610;28;20065;-63
2023/05/05 09:01:07;;;;;;;3.58;2.88;;;;;;;21.88;54.12;100685.75;4141628;28;20094;-63
2023/05/05 09:03:11;;;;;;;4.13;2.58;;;;;;;21.97;53.79;100681.03;4126041;28;20393;-63
2023/05/05 09:05:14;;;;;;;4.75;2.70;;;;;;;22.10;53.56;100680.69;4128672;28;20038;-63
2023/05/05 09:07:17;;;;;;;6.20;2.42;;;;;;;22.20;53.79;100676.84;4121611;28;20097;-63
2023/05/05 09:09:20;;;;;;;4.82;2.47;;;;;;;22.27;53.77;100674.88;4118220;28;20047;-63
2023/05/05 09:11:23;;;;;;;4.45;2.35;;;;;;;22.41;53.59;100680.63;4138981;28;20046;-63
2023/05/05 09:13:27;;;;;;;11.50;3.80;;;;;;;22.54;51.30;100672.31;4139214;28;20491;-63
2023/05/05 09:15:31;;;;;;;;;;;;;;;22.48;51.17;100668.06;4142298;28;20038;-63
2023/05/05 09:17:34;;;;;;;8.57;3.05;;;;;;;22.58;50.48;100671.31;4137370;28;19933;-63
2023/05/05 09:19:56;;;;;;;4.55;2.50;;;;;;;22.65;51.43;100665.75;4141875;28;20049;-63
2023/05/05 09:21:59;;;;;;;3.80;2.10;;;;;;;22.78;51.40;100660.03;4139301;28;20104;-63
2023/05/05 09:24:10;;;;;;;3.00;1.73;;;;;;;22.82;49.86;100661.66;4132614;28;20046;-63
2023/05/05 09:26:13;;;;;;;1.90;1.27;;;;;;;22.75;48.26;100662.78;4132586;28;20096;-63
2023/05/05 09:28:17;;;;;;;7.78;2.10;;;;;;;22.70;47.23;100659.44;4149611;28;20042;-63
2023/05/05 09:30:25;;;;;;;9.52;2.53;;;;;;;22.89;47.33;100660.53;4146813;28;20052;-63
2023/05/05 09:32:29;;;;;;;4.78;1.70;;;;;;;22.89;46.51;100660.53;4140665;28;20547;-63
2023/05/05 09:34:34;;;;;;;4.40;1.90;;;;;;;22.94;46.26;100653.31;4147616;28;20411;-63
2023/05/05 09:36:47;;;;;;;6.03;1.67;;;;;;;23.05;47.19;100652.06;4155246;28;20085;-63
2023/05/05 09:39:05;;;;;;;3.10;1.42;;;;;;;23.23;47.72;100643.50;4133108;28;20461;-63
2023/05/05 09:41:08;;;;;;;4.78;1.70;;;;;;;23.35;47.05;100642.19;4140778;28;20500;-63